Huvudsida
METAR-TAF:

METAR-TAF

Flygplatser :

Gwalior Airport

Gwalior, Indien

latitud: 26-17-36N, longitud: 78-13-40E, höjd: 188 m

METAR: saknas

Tid: 11:52 (06:22 UTC)

Väderprognos

Denna rapport gjordes för 2 timmar och 52 minuter sedan, klockan 03:30 UTC
Prognos gäller från 24 kl. 06 UTC till 24 kl. 18 UTC
Vind 5 kt från väst/sydväst
Sikt: 6000 m
Få moln på en höjd av 3000 ft
Spridda moln på en höjd av 10000 ft
Temporärt
från 24 kl. 09 UTC till 24 kl. 12 UTC
Vind 10 kt från väst/nordväst i byarna ända upp till 20 kt
Sikt: 6000 m
Spridda moln på en höjd av 3000 ft
Få moln på en höjd av 3000 ft, Högtornande cumulus.
Spridda moln på en höjd av 10000 ft

TAF: VIGR 240330Z 2406/2418 25005KT 6000 FEW030 SCT100 TEMPO 2409/2412 30010G20KT 6000 SCT030 FEW030TCU SCT100

Aktuella väderrapporter och prognoser från 4000 flygplatser (METAR- och TAF-rapporter).

De tillgängliga stationerna syns som gula och röda prickar på kartan.

För musen över prickarna för att se namnen på stationerna.

Klicka sedan för att få väderrapporter och prognoser.

För att ändra kartan: Klicka på de gröna knapparna med ett svart kors på för att zooma in; den gröna knappen med ett streck på för att zooma ut; eller på de gröna pilarna för angränsande kartor.


METAR-TAF: